createdAt,value
2017-09-20T00:03:11.632Z,31
2017-09-20T00:13:11.745Z,30
2017-09-20T00:23:11.668Z,30
2017-09-20T00:33:11.731Z,30
2017-09-20T00:43:11.620Z,29
2017-09-20T00:53:11.633Z,28
2017-09-20T01:03:11.710Z,27
2017-09-20T01:13:11.661Z,28
2017-09-20T01:23:11.609Z,28
2017-09-20T01:33:11.552Z,29
2017-09-20T01:43:11.726Z,36
2017-09-20T01:53:11.657Z,34
2017-09-20T02:03:11.679Z,35
2017-09-20T02:13:11.674Z,33
2017-09-20T02:23:11.602Z,32
2017-09-20T02:33:11.584Z,35
2017-09-20T02:43:11.636Z,34
2017-09-20T02:53:11.547Z,33
2017-09-20T03:03:11.697Z,32
2017-09-20T03:13:11.579Z,32
2017-09-20T03:23:11.583Z,31
2017-09-20T03:33:11.641Z,27
2017-09-20T03:43:11.604Z,25
2017-09-20T03:53:11.588Z,25
2017-09-20T04:03:11.633Z,26
2017-09-20T04:13:11.636Z,23
2017-09-20T04:23:11.684Z,20
2017-09-20T04:33:11.654Z,19
2017-09-20T04:43:11.621Z,20
2017-09-20T04:53:11.785Z,22
2017-09-20T05:03:11.620Z,21
2017-09-20T05:13:11.758Z,20
2017-09-20T05:23:11.853Z,22
2017-09-20T05:33:11.721Z,22
2017-09-20T05:43:11.749Z,19
2017-09-20T05:53:11.857Z,22
2017-09-20T06:03:11.707Z,21
2017-09-20T06:13:11.685Z,24
2017-09-20T06:23:11.641Z,22
2017-09-20T06:33:11.691Z,21
2017-09-20T06:43:11.716Z,20
2017-09-20T06:53:11.722Z,20
2017-09-20T07:03:11.722Z,18
2017-09-20T07:13:11.711Z,17
2017-09-20T07:23:11.758Z,17
2017-09-20T07:33:11.761Z,17
2017-09-20T07:43:11.719Z,17
2017-09-20T07:53:11.831Z,19
2017-09-20T08:03:11.804Z,19
2017-09-20T08:13:11.771Z,19
2017-09-20T08:23:11.735Z,18
2017-09-20T08:33:11.831Z,18
2017-09-20T08:43:11.816Z,22
2017-09-20T08:53:11.875Z,21
2017-09-20T09:03:11.861Z,19
2017-09-20T09:13:11.814Z,20
2017-09-20T09:23:12.501Z,21
2017-09-20T09:33:11.906Z,21
2017-09-20T09:43:11.855Z,23
2017-09-20T09:53:12.844Z,22
2017-09-20T10:03:13.638Z,22
2017-09-20T10:13:11.897Z,23
2017-09-20T10:23:12.011Z,23
2017-09-20T10:33:11.991Z,23
2017-09-20T10:43:12.091Z,21
2017-09-20T10:53:11.891Z,21
2017-09-20T11:03:11.887Z,19
2017-09-20T11:13:12.030Z,21
2017-09-20T11:23:11.982Z,17
2017-09-20T11:33:11.880Z,17
2017-09-20T11:43:11.910Z,15
2017-09-20T11:53:11.890Z,16
2017-09-20T12:03:11.975Z,16
2017-09-20T12:13:12.302Z,15
2017-09-20T12:23:12.309Z,18
2017-09-20T12:33:12.032Z,22
2017-09-20T12:43:11.944Z,24
2017-09-20T12:53:11.948Z,22
2017-09-20T13:03:12.271Z,23
2017-09-20T13:13:12.023Z,21
2017-09-20T13:23:12.667Z,22
2017-09-20T13:33:11.963Z,20
2017-09-20T13:43:12.093Z,19
2017-09-20T13:53:11.909Z,20
2017-09-20T14:03:12.052Z,21
2017-09-20T14:13:11.946Z,22
2017-09-20T14:23:12.241Z,21
2017-09-20T14:33:11.885Z,17
2017-09-20T14:43:12.001Z,18
2017-09-20T14:53:12.375Z,16
2017-09-20T15:03:11.998Z,16
2017-09-20T15:13:11.931Z,15
2017-09-20T15:23:12.047Z,18
2017-09-20T15:33:12.101Z,19
2017-09-20T15:43:12.973Z,16
2017-09-20T15:53:14.001Z,17
2017-09-20T16:03:11.977Z,17
2017-09-20T16:13:13.047Z,17
2017-09-20T16:23:12.066Z,18
2017-09-20T16:33:20.446Z,18
2017-09-20T16:43:18.747Z,18
2017-09-20T16:53:12.616Z,19
2017-09-20T17:03:12.315Z,19
2017-09-20T17:13:13.181Z,20
2017-09-20T17:23:12.593Z,23
2017-09-20T17:33:13.101Z,22
2017-09-20T17:43:12.074Z,22
2017-09-20T17:53:17.026Z,21
2017-09-20T18:03:12.013Z,20
2017-09-20T18:13:13.158Z,22
2017-09-20T18:23:13.177Z,22
2017-09-20T18:33:11.895Z,27
2017-09-20T18:43:12.023Z,25
2017-09-20T18:53:12.606Z,30
2017-09-20T19:03:15.511Z,27
2017-09-20T19:13:11.993Z,26
2017-09-20T19:23:11.980Z,30
2017-09-20T19:33:12.114Z,28
2017-09-20T19:43:13.966Z,28
2017-09-20T19:53:12.265Z,27
2017-09-20T20:03:11.989Z,27
2017-09-20T20:13:11.988Z,29
2017-09-20T20:23:12.729Z,34
2017-09-20T20:33:13.412Z,32
2017-09-20T20:43:12.070Z,33
2017-09-20T20:53:12.365Z,33
2017-09-20T21:03:12.769Z,35
2017-09-20T21:13:12.966Z,35
2017-09-20T21:23:12.064Z,34
2017-09-20T21:33:12.299Z,32
2017-09-20T21:43:12.232Z,34
2017-09-20T21:53:13.542Z,32
2017-09-20T22:03:11.918Z,33
2017-09-20T22:13:12.100Z,32
2017-09-20T22:23:13.266Z,31
2017-09-20T22:33:11.892Z,29
2017-09-20T22:43:11.969Z,28
2017-09-20T22:53:11.869Z,30
2017-09-20T23:03:12.048Z,28
2017-09-20T23:13:12.823Z,30
2017-09-20T23:23:11.963Z,29
2017-09-20T23:33:12.221Z,31
2017-09-20T23:43:12.733Z,31
2017-09-20T23:53:11.976Z,29
